Flight Information

DEPARTURE
APPLE VALLEY, CA
Elevation:
3061
Runways:
18/36 - 6498x150 - ASPH-G
8/26 - 4099x60 - ASPH-G
CTAF:
122.800
DESTINATION
BAKERSFIELD, CA
Elevation:
509
TPA:
1509 (est.)
Runways:
12R/30L - 7700x100 - ASPH-E
12L/30R - 10849x150 - ASPH-G
ATIS:
118.6 661-399-9425
Tower:
BAKERSFIELD TOWER 118.1
Ground:
121.7


105.4 NM300° True-14° Var285° HDG

Flight Plan:
(click to file on line)

1. Type
2. Aircraft Identification
3. Aircraft Type / Special Equipment
4. True Airspeed
kts
5. Departure Airport
(ICAO code)
6. Arriving Airport
(ICAO code)
7. Cruising Altitude
ft
8. Alternate Airport
(ICAO code)
9. Route of Flight
10. Remarks


00:00:00 Departure ATIS: Destination ATIS:

Clearance Limit:
Route:
Altitude: Expect in minutes
Frequency:
Transponder: (7500 Hijack / 7600 Lost Comms / 7700 Emergency)


KL35 120635Z AUTO 00000KT 10SM CLR 07/M09 A3029 RMK AO2
Time: 2020-08-12T06:35:00Z
1597214321
Winds: calm
Visibility: 10.0 sm
Clouds (AGL): CLR
Temperature: 7.0 C
Dew Point: -9.0 C
Pressure: 30.28937 in Hgbr

KBFL 120554Z 35009KT 10SM CLR 29/07 A2984 RMK AO2 SLP098 T02890072 10378 20283 51019
Time: 2020-08-12T05:54:00Z
1597214321
Winds: 350 @ 9 kts
Visibility: 10.0 sm
Clouds (AGL): CLR
Temperature: 28.9 C
Dew Point: 7.2 C
Pressure: 29.840551 in Hgbr


Notes:

Data extracted from FAA Digital Chart Supplement. Effective: 0901Z Thursday, July 16, 2020 to 0901Z Thursday, Sep 10, 2020
Current ATIS data is provided courtisy of PilotEdge.